Aurora, Colorado
Current Conditions -  °F | °C
As of 6:58 PM on Sunday 23 Nov 2014 (Local Time) from KBKF Reporting Station
Broken Clouds Broken Clouds  
Wind Chill: 26°   Ceiling: 20000
Heat Index: 26°   Visibility: 10mi
Dew Point: 18°   Wind: 3mph
Humidity: 73%   Direction: 270°W
Pressure: 29.91"   Gusts: NA
Location:  39.69°N, 104.86°W
Report Text: KBKF 240158Z 27003KT 10SM FEW050 BKN200 M03/M08 A2991 RMK AO2A SLP142 T10331076
Loading
Personal Weather Stations






























Interactive Weather Map New forecast layout! Learn more

10-Day Weather Forecast

Advertisements
Track Severe Weather on mobile